Time;durP1;ratioP1;P1;durP2;ratioP2;P2;SDS_P1;SDS_P2;PMS_P1;PMS_P2;Temp;Humidity;BMP_temperature;BMP_pressure;BME280_temperature;BME280_humidity;BME280_pressure;Samples;Min_cycle;Max_cycle;Signal;HPM_P1;HPM_P2
2023/06/28 00:01:56;;;;;;;4.63;1.50;;;;;;;-145.41;100.00;58600.66;4970829;28;20034;-76
2023/06/28 00:04:22;;;;;;;3.83;1.70;;;;;;;-145.41;100.00;58600.66;4971433;28;20039;-76
2023/06/28 00:06:47;;;;;;;2.55;1.02;;;;;;;-145.41;100.00;58600.66;4969990;28;20039;-76
2023/06/28 00:09:12;;;;;;;2.97;1.25;;;;;;;-145.41;100.00;58600.66;4967079;28;20035;-76
2023/06/28 00:11:37;;;;;;;3.33;1.40;;;;;;;-145.41;100.00;58600.66;4969404;28;20050;-76
2023/06/28 00:14:03;;;;;;;3.40;1.42;;;;;;;-145.41;100.00;58600.66;4969368;28;20046;-76
2023/06/28 00:16:28;;;;;;;2.88;1.25;;;;;;;-145.41;100.00;58600.66;4971569;28;20050;-76
2023/06/28 00:19:00;;;;;;;6.20;1.45;;;;;;;-145.41;100.00;58600.66;4967499;28;20046;-76
2023/06/28 00:21:25;;;;;;;2.20;1.10;;;;;;;-145.41;100.00;58600.66;4968805;28;20038;-76
2023/06/28 00:23:50;;;;;;;2.97;1.20;;;;;;;-145.41;100.00;58600.66;4953927;28;20682;-76
2023/06/28 00:26:16;;;;;;;3.78;1.50;;;;;;;-145.41;100.00;58600.66;4949788;28;20097;-76
2023/06/28 00:28:41;;;;;;;3.83;1.50;;;;;;;-145.41;100.00;58600.66;4972857;28;20034;-76
2023/06/28 00:31:08;;;;;;;5.05;1.90;;;;;;;-145.41;100.00;58600.66;4970724;28;20043;-76
2023/06/28 00:33:33;;;;;;;3.50;1.98;;;;;;;-145.41;100.00;58600.66;4971048;28;20042;-76
2023/06/28 00:36:01;;;;;;;4.32;1.60;;;;;;;-145.41;100.00;58600.66;4956057;28;20077;-76
2023/06/28 00:38:26;;;;;;;2.90;1.45;;;;;;;-145.41;100.00;58600.66;4951354;28;20545;-76
2023/06/28 00:40:51;;;;;;;5.20;1.60;;;;;;;-145.41;100.00;58600.66;4967297;28;20117;-76
2023/06/28 00:43:17;;;;;;;4.75;1.90;;;;;;;-145.41;100.00;58600.66;4972188;28;20466;-76
2023/06/28 00:45:42;;;;;;;2.78;1.50;;;;;;;-145.41;100.00;58600.66;4966238;28;20034;-76
2023/06/28 00:48:09;;;;;;;4.57;1.83;;;;;;;-145.41;100.00;58600.66;4953041;28;20035;-76
2023/06/28 00:50:36;;;;;;;6.60;1.60;;;;;;;-145.41;100.00;58600.66;4948776;28;20105;-76
2023/06/28 00:53:01;;;;;;;3.00;1.77;;;;;;;-145.41;100.00;58600.66;4952654;28;20498;-76
2023/06/28 00:55:27;;;;;;;4.22;1.65;;;;;;;-145.41;100.00;58600.66;4957059;28;20033;-76
2023/06/28 00:57:53;;;;;;;6.30;1.83;;;;;;;-145.41;100.00;58600.66;4949975;28;20042;-77
2023/06/28 01:00:19;;;;;;;5.53;1.50;;;;;;;-145.41;100.00;58600.66;4948938;29;20094;-76
2023/06/28 01:02:44;;;;;;;5.40;1.65;;;;;;;-145.41;100.00;58600.66;4970864;28;20061;-77
2023/06/28 01:05:13;;;;;;;4.20;2.00;;;;;;;-145.41;100.00;58600.66;4969992;28;20030;-76
2023/06/28 01:07:39;;;;;;;4.07;1.77;;;;;;;-145.41;100.00;58600.66;4969562;28;20486;-77
2023/06/28 01:10:06;;;;;;;4.47;1.50;;;;;;;-145.41;100.00;58600.66;4956115;28;20030;-76
2023/06/28 01:12:32;;;;;;;3.20;1.52;;;;;;;-145.41;100.00;58600.66;4953951;28;20386;-76
2023/06/28 01:14:57;;;;;;;2.83;1.40;;;;;;;-145.41;100.00;58600.66;4969237;28;20042;-76
2023/06/28 01:17:23;;;;;;;5.13;1.77;;;;;;;-145.41;100.00;58600.66;4966908;28;20035;-76
2023/06/28 01:19:49;;;;;;;4.18;2.05;;;;;;;-145.41;100.00;58600.66;4954991;28;20031;-76
2023/06/28 01:22:14;;;;;;;2.75;1.50;;;;;;;-145.41;100.00;58600.66;4949355;28;20039;-76
2023/06/28 01:24:40;;;;;;;5.50;1.80;;;;;;;-145.41;100.00;58600.66;4951608;28;20081;-77
2023/06/28 01:27:11;;;;;;;4.00;1.73;;;;;;;-145.41;100.00;58600.66;4966013;28;20038;-76
2023/06/28 01:29:37;;;;;;;6.00;1.95;;;;;;;-145.41;100.00;58600.66;4966493;28;20128;-76
2023/06/28 01:32:04;;;;;;;6.03;2.13;;;;;;;-145.41;100.00;58600.66;4950995;28;20034;-76
2023/06/28 01:34:30;;;;;;;3.95;1.95;;;;;;;-145.41;100.00;58600.66;4953338;28;20042;-76
2023/06/28 01:36:58;;;;;;;5.18;1.77;;;;;;;-145.41;100.00;58600.66;4951221;28;20051;-76
2023/06/28 01:39:25;;;;;;;3.40;1.60;;;;;;;-145.41;100.00;58600.66;4966656;28;20035;-76
2023/06/28 01:41:52;;;;;;;4.43;1.92;;;;;;;-145.41;100.00;58600.66;4972976;28;20038;-76
2023/06/28 01:44:18;;;;;;;4.20;2.10;;;;;;;-145.41;100.00;58600.66;4969748;28;20033;-76
2023/06/28 01:46:44;;;;;;;4.70;1.80;;;;;;;-145.41;100.00;58600.66;4973084;28;20397;-76
2023/06/28 01:49:09;;;;;;;3.58;1.83;;;;;;;-145.41;100.00;58600.66;4950618;28;20034;-77
2023/06/28 01:51:36;;;;;;;3.67;1.80;;;;;;;-145.41;100.00;58600.66;4967866;28;20408;-76
2023/06/28 01:54:03;;;;;;;3.83;1.50;;;;;;;-145.41;100.00;58600.66;4948176;28;20042;-76
2023/06/28 01:56:28;;;;;;;7.43;2.25;;;;;;;-145.41;100.00;58600.66;4969838;28;20450;-76
2023/06/28 01:58:54;;;;;;;4.40;1.52;;;;;;;-145.41;100.00;58600.66;4958585;28;20081;-76
2023/06/28 02:01:19;;;;;;;4.75;1.83;;;;;;;-145.41;100.00;58600.66;4955803;28;20093;-76
2023/06/28 02:03:45;;;;;;;4.35;2.28;;;;;;;-145.41;100.00;58600.66;4973093;28;20375;-76
2023/06/28 02:06:10;;;;;;;3.00;1.48;;;;;;;-145.41;100.00;58600.66;4949489;28;20041;-76
2023/06/28 02:08:36;;;;;;;5.30;1.77;;;;;;;-145.41;100.00;58600.66;4951115;28;20073;-76
2023/06/28 02:11:03;;;;;;;6.60;2.08;;;;;;;-145.41;100.00;58600.66;4953582;28;20039;-76
2023/06/28 02:13:29;;;;;;;4.05;1.90;;;;;;;-145.41;100.00;58600.66;4950323;28;20034;-76
2023/06/28 02:15:55;;;;;;;3.63;1.63;;;;;;;-145.41;100.00;58600.66;4951869;28;20166;-76
2023/06/28 02:18:24;;;;;;;6.50;2.50;;;;;;;-145.41;100.00;58600.66;4966368;28;20041;-76
2023/06/28 02:20:51;;;;;;;4.03;2.08;;;;;;;-145.41;100.00;58600.66;4966262;28;20039;-76
2023/06/28 02:23:16;;;;;;;6.10;1.88;;;;;;;-145.41;100.00;58600.66;4970677;28;20489;-76
2023/06/28 02:25:42;;;;;;;4.38;1.95;;;;;;;-145.41;100.00;58600.66;4971515;28;20093;-76
2023/06/28 02:28:08;;;;;;;5.28;1.75;;;;;;;-145.41;100.00;58600.66;4965307;28;20041;-76
2023/06/28 02:30:35;;;;;;;3.85;1.60;;;;;;;-145.41;100.00;58600.66;4967892;28;20031;-76
2023/06/28 02:33:01;;;;;;;4.00;1.95;;;;;;;-145.41;100.00;58600.66;4971445;28;20045;-76
2023/06/28 02:35:26;;;;;;;6.45;2.00;;;;;;;-145.41;100.00;58600.66;4971470;28;20034;-76
2023/06/28 02:37:51;;;;;;;6.72;1.95;;;;;;;-145.41;100.00;58600.66;4972207;28;20039;-76
2023/06/28 02:40:17;;;;;;;5.63;2.25;;;;;;;-145.41;100.00;58600.66;4967987;28;20031;-76
2023/06/28 02:42:42;;;;;;;5.85;3.13;;;;;;;-145.41;100.00;58600.66;4972506;28;20039;-76
2023/06/28 02:45:08;;;;;;;5.90;2.20;;;;;;;-145.41;100.00;58600.66;4971729;28;20038;-76
2023/06/28 02:47:35;;;;;;;4.57;2.30;;;;;;;-145.41;100.00;58600.66;4954226;28;20019;-76
2023/06/28 02:50:04;;;;;;;6.07;2.88;;;;;;;-145.41;100.00;58600.66;4971649;28;20035;-76
2023/06/28 02:52:32;;;;;;;4.15;1.90;;;;;;;-145.41;100.00;58600.66;4954882;28;20023;-76
2023/06/28 02:54:59;;;;;;;4.65;1.83;;;;;;;-145.41;100.00;58600.66;4953216;28;20383;-76
2023/06/28 02:57:24;;;;;;;4.90;1.92;;;;;;;-145.41;100.00;58600.66;4971740;28;20086;-76
2023/06/28 02:59:53;;;;;;;4.60;2.00;;;;;;;-145.41;100.00;58600.66;4953562;28;20038;-76
2023/06/28 03:02:18;;;;;;;5.93;1.90;;;;;;;-145.41;100.00;58600.66;4953179;28;20446;-76
2023/06/28 03:04:44;;;;;;;3.65;1.63;;;;;;;-145.41;100.00;58600.66;4954909;28;20081;-76
2023/06/28 03:07:14;;;;;;;4.03;1.60;;;;;;;-145.41;100.00;58600.66;4954288;28;20043;-76
2023/06/28 03:09:40;;;;;;;4.47;2.10;;;;;;;-145.41;100.00;58600.66;4954042;28;20035;-76
2023/06/28 03:12:05;;;;;;;5.90;2.03;;;;;;;-145.41;100.00;58600.66;4954624;28;20041;-76
2023/06/28 03:14:31;;;;;;;3.67;1.60;;;;;;;-145.41;100.00;58600.66;4954317;28;20027;-76
2023/06/28 03:16:56;;;;;;;4.72;1.92;;;;;;;-145.41;100.00;58600.66;4971759;28;20505;-76
2023/06/28 03:19:22;;;;;;;5.88;1.92;;;;;;;-145.41;100.00;58600.66;4952862;28;20515;-76
2023/06/28 03:21:47;;;;;;;4.10;1.92;;;;;;;-145.41;100.00;58600.66;4954313;28;20027;-76
2023/06/28 03:24:13;;;;;;;6.45;1.80;;;;;;;-145.41;100.00;58600.66;4951708;28;20117;-76
2023/06/28 03:26:40;;;;;;;7.20;2.10;;;;;;;-145.41;100.00;58600.66;4959229;28;20108;-76
2023/06/28 03:29:05;;;;;;;4.30;1.70;;;;;;;-145.41;100.00;58600.66;4975288;28;20494;-77
2023/06/28 03:31:33;;;;;;;6.03;1.98;;;;;;;-145.41;100.00;58600.66;4975914;28;20038;-77
2023/06/28 03:34:00;;;;;;;4.45;2.40;;;;;;;-145.41;100.00;58600.66;4958344;28;20452;-77
2023/06/28 03:36:29;;;;;;;4.70;2.03;;;;;;;-145.41;100.00;58600.66;4962628;28;20117;-76
2023/06/28 03:38:56;;;;;;;10.80;2.65;;;;;;;-145.41;100.00;58600.66;4952948;28;20126;-76
2023/06/28 03:41:21;;;;;;;4.60;2.10;;;;;;;-145.41;100.00;58600.66;4958351;28;20109;-77
2023/06/28 03:43:46;;;;;;;6.93;1.80;;;;;;;-145.41;100.00;58600.66;4957497;28;20027;-76
2023/06/28 03:46:12;;;;;;;8.80;2.35;;;;;;;-145.41;100.00;58600.66;4958110;28;20030;-76
2023/06/28 03:48:37;;;;;;;5.22;1.50;;;;;;;-145.41;100.00;58600.66;4957363;28;20031;-76
2023/06/28 03:51:03;;;;;;;7.22;2.40;;;;;;;-145.41;100.00;58600.66;4957440;28;20069;-77
2023/06/28 03:53:28;;;;;;;6.80;2.05;;;;;;;-145.41;100.00;58600.66;4958101;28;20037;-77
2023/06/28 03:55:53;;;;;;;5.40;2.33;;;;;;;-145.41;100.00;58600.66;4974989;28;20110;-77
2023/06/28 03:58:19;;;;;;;4.60;1.85;;;;;;;-145.41;100.00;58600.66;4957434;28;20122;-76
2023/06/28 04:00:44;;;;;;;5.93;2.20;;;;;;;-145.41;100.00;58600.66;4957393;28;20040;-77
2023/06/28 04:03:09;;;;;;;5.15;2.05;;;;;;;-145.41;100.00;58600.66;4975409;28;20505;-76
2023/06/28 04:05:35;;;;;;;8.15;2.13;;;;;;;-145.41;100.00;58600.66;4975230;28;20241;-76
2023/06/28 04:08:02;;;;;;;10.40;2.97;;;;;;;-145.41;100.00;58600.66;4974751;28;20417;-76
2023/06/28 04:10:27;;;;;;;9.23;2.30;;;;;;;-145.41;100.00;58600.66;4974562;28;20034;-76
2023/06/28 04:12:52;;;;;;;7.28;2.30;;;;;;;-145.41;100.00;58600.66;4974745;28;20031;-76
2023/06/28 04:15:18;;;;;;;9.10;2.20;;;;;;;-145.41;100.00;58600.66;4974710;28;20106;-77
2023/06/28 04:17:43;;;;;;;7.40;2.53;;;;;;;-145.41;100.00;58600.66;4974750;28;20042;-76
2023/06/28 04:20:09;;;;;;;9.82;2.20;;;;;;;-145.41;100.00;58600.66;4974353;28;20049;-77
2023/06/28 04:22:34;;;;;;;6.95;2.15;;;;;;;-145.41;100.00;58600.66;4974856;28;20129;-77
2023/06/28 04:25:00;;;;;;;13.15;3.83;;;;;;;-145.41;100.00;58600.66;4974692;28;20114;-76
2023/06/28 04:27:25;;;;;;;5.97;2.20;;;;;;;-145.41;100.00;58600.66;4974818;28;20416;-77
2023/06/28 04:29:51;;;;;;;4.78;2.22;;;;;;;-145.41;100.00;58600.66;4973994;28;20525;-77
2023/06/28 04:32:26;;;;;;;6.63;2.17;;;;;;;-145.41;100.00;58600.66;4974007;28;20035;-77
2023/06/28 04:34:53;;;;;;;6.60;2.53;;;;;;;-145.41;100.00;58600.66;4973202;28;20398;-76
2023/06/28 04:37:22;;;;;;;5.10;2.30;;;;;;;-145.41;100.00;58600.66;4973962;28;20081;-77
2023/06/28 04:39:48;;;;;;;6.47;2.20;;;;;;;-145.41;100.00;58600.66;4973844;28;20478;-77
2023/06/28 04:42:14;;;;;;;9.05;2.70;;;;;;;-145.41;100.00;58600.66;4974601;28;20039;-77
2023/06/28 04:44:41;;;;;;;5.20;2.45;;;;;;;-145.41;100.00;58600.66;4974457;28;20041;-76
2023/06/28 04:47:07;;;;;;;9.02;2.53;;;;;;;-145.41;100.00;58600.66;5002013;23;20038;-72
2023/06/28 04:49:34;;;;;;;8.25;2.30;;;;;;;-145.41;100.00;58600.66;5002977;28;20049;-72
2023/06/28 04:51:59;;;;;;;5.65;2.50;;;;;;;-145.41;100.00;58600.66;5007793;28;20134;-72
2023/06/28 04:54:24;;;;;;;5.88;2.47;;;;;;;-145.41;100.00;58600.66;5001706;28;20109;-72
2023/06/28 04:56:50;;;;;;;6.30;2.03;;;;;;;-145.41;100.00;58600.66;4988158;28;20043;-73
2023/06/28 04:59:15;;;;;;;6.25;2.08;;;;;;;-145.41;100.00;58600.66;4973590;28;20043;-72
2023/06/28 05:01:41;;;;;;;9.07;2.40;;;;;;;-145.41;100.00;58600.66;4956652;28;20101;-72
2023/06/28 05:04:07;;;;;;;10.23;2.80;;;;;;;-145.41;100.00;58600.66;4974095;28;20049;-72
2023/06/28 05:06:35;;;;;;;8.30;2.15;;;;;;;-145.41;100.00;58600.66;4973896;28;20151;-72
2023/06/28 05:09:01;;;;;;;6.82;2.65;;;;;;;-145.41;100.00;58600.66;4955650;28;20074;-73
2023/06/28 05:11:26;;;;;;;8.00;2.72;;;;;;;-145.41;100.00;58600.66;4972467;28;20057;-72
2023/06/28 05:13:51;;;;;;;6.20;2.47;;;;;;;-145.41;100.00;58600.66;4974011;28;20039;-72
2023/06/28 05:16:17;;;;;;;5.60;2.78;;;;;;;-145.41;100.00;58600.66;4973826;28;20039;-73
2023/06/28 05:18:42;;;;;;;7.45;2.63;;;;;;;-145.41;100.00;58600.66;4973335;28;20031;-72
2023/06/28 05:21:07;;;;;;;7.82;2.30;;;;;;;-145.41;100.00;58600.66;4973542;28;20039;-72
2023/06/28 05:23:33;;;;;;;5.13;2.17;;;;;;;-145.41;100.00;58600.66;4972634;28;20027;-73
2023/06/28 05:25:58;;;;;;;10.18;2.25;;;;;;;-145.41;100.00;58600.66;4973900;28;20569;-73
2023/06/28 05:28:25;;;;;;;6.40;2.17;;;;;;;-145.41;100.00;58600.66;4973397;28;20023;-73
2023/06/28 05:30:51;;;;;;;9.93;2.88;;;;;;;-145.41;100.00;58600.66;4970202;28;20046;-72
2023/06/28 05:33:16;;;;;;;9.23;2.03;;;;;;;-145.41;100.00;58600.66;4973671;28;20051;-72
2023/06/28 05:35:41;;;;;;;10.35;2.42;;;;;;;-145.41;100.00;58600.66;4973264;28;20042;-74
2023/06/28 05:38:07;;;;;;;9.02;2.30;;;;;;;-145.41;100.00;58600.66;4973347;28;20038;-75
2023/06/28 05:40:33;;;;;;;6.88;2.67;;;;;;;-145.41;100.00;58600.66;4972737;28;20085;-74
2023/06/28 05:42:58;;;;;;;10.80;2.63;;;;;;;-145.41;100.00;58600.66;4973024;28;20066;-74
2023/06/28 05:45:25;;;;;;;6.25;1.90;;;;;;;-145.41;100.00;58600.66;4956129;28;20062;-75
2023/06/28 05:47:51;;;;;;;7.78;2.40;;;;;;;-145.41;100.00;58600.66;4972750;28;20466;-75
2023/06/28 05:50:17;;;;;;;6.93;2.15;;;;;;;-145.41;100.00;58600.66;4971551;28;20122;-75
2023/06/28 05:52:44;;;;;;;6.90;1.92;;;;;;;-145.41;100.00;58600.66;4973412;28;20113;-75
2023/06/28 05:55:10;;;;;;;5.50;1.85;;;;;;;-145.41;100.00;58600.66;4972781;28;20046;-75
2023/06/28 05:57:36;;;;;;;6.70;2.30;;;;;;;-145.41;100.00;58600.66;4973070;28;20026;-75
2023/06/28 06:00:06;;;;;;;7.57;2.28;;;;;;;-145.41;100.00;58600.66;4971943;28;20047;-75
2023/06/28 06:02:33;;;;;;;8.15;2.05;;;;;;;-145.41;100.00;58600.66;4972433;28;20031;-75
2023/06/28 06:04:58;;;;;;;11.00;1.73;;;;;;;-145.41;100.00;58600.66;4972605;28;20514;-74
2023/06/28 06:07:24;;;;;;;9.30;2.13;;;;;;;-145.41;100.00;58600.66;4972798;28;20027;-75
2023/06/28 06:09:49;;;;;;;11.70;2.30;;;;;;;-145.41;100.00;58600.66;4972069;28;20425;-75
2023/06/28 06:12:15;;;;;;;7.93;1.83;;;;;;;-145.41;100.00;58600.66;4972949;28;20050;-75
2023/06/28 06:14:40;;;;;;;5.47;2.08;;;;;;;-145.41;100.00;58600.66;4972788;28;20043;-75
2023/06/28 06:17:05;;;;;;;11.93;2.15;;;;;;;-145.41;100.00;58600.66;4955189;28;20093;-75
2023/06/28 06:19:30;;;;;;;9.18;2.33;;;;;;;-145.41;100.00;58600.66;4972970;28;20039;-73
2023/06/28 06:21:56;;;;;;;8.23;2.40;;;;;;;-145.41;100.00;58600.66;4971607;28;20053;-71
2023/06/28 06:24:21;;;;;;;9.15;2.40;;;;;;;-145.41;100.00;58600.66;4939424;28;20037;-73
2023/06/28 06:26:46;;;;;;;5.32;1.92;;;;;;;-145.41;100.00;58600.66;4955145;28;20038;-73
2023/06/28 06:29:12;;;;;;;6.43;2.05;;;;;;;-145.41;100.00;58600.66;4954472;28;20042;-73
2023/06/28 06:31:37;;;;;;;6.70;2.10;;;;;;;-145.41;100.00;58600.66;4972514;28;20038;-73
2023/06/28 06:34:03;;;;;;;8.15;2.35;;;;;;;-145.41;100.00;58600.66;4972539;28;20038;-73
2023/06/28 06:36:28;;;;;;;6.15;1.70;;;;;;;-145.41;100.00;58600.66;4972187;28;20034;-73
2023/06/28 06:38:55;;;;;;;5.78;2.30;;;;;;;-145.41;100.00;58600.66;4973654;28;20034;-73
2023/06/28 06:41:23;;;;;;;7.07;2.38;;;;;;;-145.41;100.00;58600.66;4978634;28;20494;-72
2023/06/28 06:43:49;;;;;;;6.45;2.38;;;;;;;-145.41;100.00;58600.66;4978422;28;20422;-73
2023/06/28 06:46:16;;;;;;;5.47;1.70;;;;;;;-145.41;100.00;58600.66;4972288;28;20035;-72
2023/06/28 06:48:42;;;;;;;8.40;1.83;;;;;;;-145.41;100.00;58600.66;4954699;28;20094;-72
2023/06/28 06:51:07;;;;;;;5.10;1.60;;;;;;;-145.41;100.00;58600.66;4972046;28;20027;-73
2023/06/28 06:53:33;;;;;;;10.98;2.13;;;;;;;-145.41;100.00;58600.66;4972163;28;20460;-73
2023/06/28 06:55:59;;;;;;;6.78;1.52;;;;;;;-145.41;100.00;58600.66;4972217;28;20405;-73
2023/06/28 06:58:25;;;;;;;7.65;1.75;;;;;;;-145.41;100.00;58600.66;4971165;28;20031;-73
2023/06/28 07:00:51;;;;;;;7.43;1.90;;;;;;;-145.41;100.00;58600.66;4970944;28;20509;-73
2023/06/28 07:03:18;;;;;;;8.05;1.45;;;;;;;-145.41;100.00;58600.66;4972148;28;20081;-72
2023/06/28 07:05:43;;;;;;;5.22;1.67;;;;;;;-145.41;100.00;58600.66;4972056;28;20080;-73
2023/06/28 07:08:08;;;;;;;8.25;1.73;;;;;;;-145.41;100.00;58600.66;4971822;28;20452;-74
2023/06/28 07:10:34;;;;;;;5.15;1.35;;;;;;;-145.41;100.00;58600.66;4971382;28;20037;-73
2023/06/28 07:13:00;;;;;;;8.77;1.98;;;;;;;-145.41;100.00;58600.66;4972208;28;20038;-73
2023/06/28 07:15:25;;;;;;;7.30;1.50;;;;;;;-145.41;100.00;58600.66;4971725;28;20458;-72
2023/06/28 07:17:53;;;;;;;8.80;2.15;;;;;;;-145.41;100.00;58600.66;4970862;28;20045;-73
2023/06/28 07:20:18;;;;;;;8.88;2.08;;;;;;;-145.41;100.00;58600.66;4970345;28;20038;-73
2023/06/28 07:22:43;;;;;;;5.43;1.52;;;;;;;-145.41;100.00;58600.66;4971825;28;20039;-73
2023/06/28 07:25:09;;;;;;;6.03;1.55;;;;;;;-145.41;100.00;58600.66;4971889;28;20039;-73
2023/06/28 07:27:34;;;;;;;5.93;2.10;;;;;;;-145.41;100.00;58600.66;4971708;28;20066;-73
2023/06/28 07:29:59;;;;;;;6.97;1.65;;;;;;;-145.41;100.00;58600.66;4971002;28;20085;-72
2023/06/28 07:32:26;;;;;;;3.47;1.27;;;;;;;-145.41;100.00;58600.66;4971713;28;20045;-73
2023/06/28 07:34:52;;;;;;;5.90;1.48;;;;;;;-145.41;100.00;58600.66;4953499;28;20548;-72
2023/06/28 07:37:18;;;;;;;5.90;1.50;;;;;;;-145.41;100.00;58600.66;4968341;28;20113;-73
2023/06/28 07:39:43;;;;;;;3.28;1.00;;;;;;;-145.41;100.00;58600.66;4971260;28;20122;-74
2023/06/28 07:42:08;;;;;;;10.63;1.98;;;;;;;-145.41;100.00;58600.66;4971612;28;20058;-73
2023/06/28 07:44:34;;;;;;;5.53;1.60;;;;;;;-145.41;100.00;58600.66;4971804;28;20039;-73
2023/06/28 07:46:59;;;;;;;6.45;1.58;;;;;;;-145.41;100.00;58600.66;4971369;28;20034;-73
2023/06/28 07:49:24;;;;;;;6.40;1.30;;;;;;;-145.41;100.00;58600.66;4970664;28;20039;-73
2023/06/28 07:51:50;;;;;;;6.95;1.48;;;;;;;-145.41;100.00;58600.66;4971404;28;20089;-73
2023/06/28 07:54:15;;;;;;;3.92;1.63;;;;;;;-145.41;100.00;58600.66;4971254;28;20030;-73
2023/06/28 07:56:41;;;;;;;7.47;1.55;;;;;;;-145.41;100.00;58600.66;4954277;28;20094;-73
2023/06/28 07:59:06;;;;;;;5.30;1.52;;;;;;;-145.41;100.00;58600.66;4970879;28;20038;-72
2023/06/28 08:01:33;;;;;;;7.03;1.27;;;;;;;-145.41;100.00;58600.66;4971097;28;20047;-73
2023/06/28 08:03:59;;;;;;;6.38;1.30;;;;;;;-145.41;100.00;58600.66;4971509;28;20516;-73
2023/06/28 08:06:25;;;;;;;4.90;0.93;;;;;;;-145.41;100.00;58600.66;4971051;28;20041;-73
2023/06/28 08:08:50;;;;;;;4.97;1.30;;;;;;;-145.41;100.00;58600.66;4970507;28;20039;-73
2023/06/28 08:11:16;;;;;;;6.90;1.20;;;;;;;-145.41;100.00;58600.66;4971176;28;20031;-74
2023/06/28 08:13:41;;;;;;;8.35;1.27;;;;;;;-145.41;100.00;58600.66;4973002;28;20514;-73
2023/06/28 08:16:06;;;;;;;8.73;1.40;;;;;;;-145.41;100.00;58600.66;4956597;28;20038;-72
2023/06/28 08:18:32;;;;;;;6.38;1.10;;;;;;;-145.41;100.00;58600.66;4974429;28;20043;-73
2023/06/28 08:20:57;;;;;;;4.30;1.10;;;;;;;-145.41;100.00;58600.66;4974079;28;20054;-73
2023/06/28 08:23:22;;;;;;;5.75;0.95;;;;;;;-145.41;100.00;58600.66;4956800;28;20038;-73
2023/06/28 08:25:48;;;;;;;6.05;1.40;;;;;;;-145.41;100.00;58600.66;4974866;28;20403;-73
2023/06/28 08:28:14;;;;;;;6.25;1.27;;;;;;;-145.41;100.00;58600.66;4974203;28;20517;-73
2023/06/28 08:30:39;;;;;;;4.80;1.13;;;;;;;-145.41;100.00;58600.66;4974130;28;20114;-73
2023/06/28 08:33:05;;;;;;;5.53;1.65;;;;;;;-145.41;100.00;58600.66;4974818;28;20043;-73
2023/06/28 08:35:31;;;;;;;6.35;1.10;;;;;;;-145.41;100.00;58600.66;4957204;28;20031;-72
2023/06/28 08:37:57;;;;;;;4.50;1.27;;;;;;;-145.41;100.00;58600.66;4974664;28;20047;-73
2023/06/28 08:40:27;;;;;;;5.90;1.30;;;;;;;-145.41;100.00;58600.66;4973985;28;20033;-73
2023/06/28 08:42:58;;;;;;;7.55;1.27;;;;;;;-145.41;100.00;58600.66;4957011;28;20493;-73
2023/06/28 08:45:25;;;;;;;5.68;1.30;;;;;;;-145.41;100.00;58600.66;4970915;28;20493;-74
2023/06/28 08:47:51;;;;;;;5.18;1.27;;;;;;;-145.41;100.00;58600.66;4974119;28;20121;-73
2023/06/28 08:50:17;;;;;;;4.45;0.90;;;;;;;-145.41;100.00;58600.66;4973325;28;20110;-73
2023/06/28 08:52:44;;;;;;;3.85;1.33;;;;;;;-145.41;100.00;58600.66;4974215;28;20034;-73
2023/06/28 08:55:10;;;;;;;3.75;0.95;;;;;;;-145.41;100.00;58600.66;4974452;28;20077;-73
2023/06/28 08:57:36;;;;;;;4.75;1.20;;;;;;;-145.41;100.00;58600.66;4974020;28;20043;-73
2023/06/28 09:00:05;;;;;;;3.13;1.10;;;;;;;-145.41;100.00;58600.66;4973702;28;20486;-73
2023/06/28 09:02:32;;;;;;;5.47;1.33;;;;;;;-145.41;100.00;58600.66;4973310;28;20042;-73
2023/06/28 09:04:58;;;;;;;4.82;0.90;;;;;;;-145.41;100.00;58600.66;4974104;28;20042;-73
2023/06/28 09:07:24;;;;;;;4.88;1.15;;;;;;;-145.41;100.00;58600.66;4974001;28;20105;-73
2023/06/28 09:09:51;;;;;;;4.45;1.20;;;;;;;-145.41;100.00;58600.66;4956027;28;20046;-73
2023/06/28 09:12:18;;;;;;;5.35;1.20;;;;;;;-145.41;100.00;58600.66;4973304;28;20533;-73
2023/06/28 09:14:44;;;;;;;3.05;1.13;;;;;;;-145.41;100.00;58600.66;4973914;28;20473;-72
2023/06/28 09:17:09;;;;;;;5.05;0.98;;;;;;;-145.41;100.00;58600.66;4956169;28;20042;-73
2023/06/28 09:19:36;;;;;;;2.13;0.93;;;;;;;-145.41;100.00;58600.66;4972214;28;20046;-73
2023/06/28 09:22:03;;;;;;;4.13;1.10;;;;;;;-145.41;100.00;58600.66;4958447;28;20066;-73
2023/06/28 09:24:32;;;;;;;1.98;0.80;;;;;;;-145.41;100.00;58600.66;4972562;28;20027;-73
2023/06/28 09:27:01;;;;;;;3.47;0.88;;;;;;;-145.41;100.00;58600.66;4973708;28;20030;-73
2023/06/28 09:29:26;;;;;;;2.38;0.68;;;;;;;-145.41;100.00;58600.66;4955570;28;20039;-73
2023/06/28 09:31:53;;;;;;;3.10;0.80;;;;;;;-145.41;100.00;58600.66;4973454;28;20034;-72
2023/06/28 09:34:23;;;;;;;3.30;0.80;;;;;;;-145.41;100.00;58600.66;4973467;28;20118;-73
2023/06/28 09:36:57;;;;;;;4.45;0.88;;;;;;;-145.41;100.00;58600.66;4971743;28;20057;-73
2023/06/28 09:39:27;;;;;;;4.90;0.90;;;;;;;-145.41;100.00;58600.66;4972506;28;20058;-73
2023/06/28 09:41:53;;;;;;;10.52;1.38;;;;;;;-145.41;100.00;58600.66;4973498;28;20682;-73
2023/06/28 09:44:30;;;;;;;3.55;1.42;;;;;;;-145.41;100.00;58600.66;4973467;28;20109;-73
2023/06/28 09:47:05;;;;;;;5.18;1.17;;;;;;;-145.41;100.00;58600.66;4973113;28;20453;-73
2023/06/28 09:49:31;;;;;;;6.07;1.35;;;;;;;-145.41;100.00;58600.66;4972615;28;20042;-72
2023/06/28 09:52:04;;;;;;;5.82;1.27;;;;;;;-145.41;100.00;58600.66;4973203;28;20089;-73
2023/06/28 09:54:34;;;;;;;5.20;1.27;;;;;;;-145.41;100.00;58600.66;4970042;28;20093;-72
2023/06/28 09:57:01;;;;;;;5.05;1.15;;;;;;;-145.41;100.00;58600.66;4972207;28;20027;-73
2023/06/28 09:59:33;;;;;;;3.22;0.70;;;;;;;-145.41;100.00;58600.66;4972327;28;20062;-73
2023/06/28 10:02:04;;;;;;;5.18;1.50;;;;;;;-145.41;100.00;58600.66;4955827;28;20490;-73
2023/06/28 10:04:32;;;;;;;3.87;1.13;;;;;;;-145.41;100.00;58600.66;4970257;28;20038;-73
2023/06/28 10:07:00;;;;;;;3.38;0.90;;;;;;;-145.41;100.00;58600.66;4969257;28;20773;-73
2023/06/28 10:09:32;;;;;;;4.88;1.30;;;;;;;-145.41;100.00;58600.66;4952414;28;20031;-72
2023/06/28 10:11:59;;;;;;;3.45;1.13;;;;;;;-145.41;100.00;58600.66;4973043;28;20070;-73
2023/06/28 10:14:30;;;;;;;3.92;1.65;;;;;;;-145.41;100.00;58600.66;4972263;28;20125;-73
2023/06/28 10:16:59;;;;;;;6.75;1.17;;;;;;;-145.41;100.00;58600.66;4972402;28;20566;-73
2023/06/28 10:19:25;;;;;;;4.68;1.08;;;;;;;-145.41;100.00;58600.66;4972145;28;20121;-73
2023/06/28 10:21:51;;;;;;;3.58;0.90;;;;;;;-145.41;100.00;58600.66;4971929;28;20401;-73
2023/06/28 10:24:17;;;;;;;4.47;1.05;;;;;;;-145.41;100.00;58600.66;4972739;28;20031;-73
2023/06/28 10:26:43;;;;;;;4.75;1.30;;;;;;;-145.41;100.00;58600.66;4969491;28;20035;-73
2023/06/28 10:29:08;;;;;;;4.72;1.38;;;;;;;-145.41;100.00;58600.66;4971864;28;20490;-73
2023/06/28 10:31:34;;;;;;;4.43;0.95;;;;;;;-145.41;100.00;58600.66;4972323;28;20066;-73
2023/06/28 10:33:59;;;;;;;5.07;1.20;;;;;;;-145.41;100.00;58600.66;4971853;28;20481;-73
2023/06/28 10:36:26;;;;;;;5.68;1.20;;;;;;;-145.41;100.00;58600.66;4972088;28;20034;-73
2023/06/28 10:38:51;;;;;;;4.75;1.40;;;;;;;-145.41;100.00;58600.66;4954274;28;20045;-73
2023/06/28 10:41:18;;;;;;;4.53;1.27;;;;;;;-145.41;100.00;58600.66;4972428;28;20050;-73
2023/06/28 10:43:44;;;;;;;4.32;1.35;;;;;;;-145.41;100.00;58600.66;4972346;28;20481;-74
2023/06/28 10:46:26;;;;;;;5.10;1.13;;;;;;;-145.41;100.00;58600.66;4972127;28;20026;-73
2023/06/28 10:48:53;;;;;;;6.65;1.20;;;;;;;-145.41;100.00;58600.66;4971202;28;20093;-72
2023/06/28 10:53:55;;;;;;;2.50;0.75;;;;;;;-145.41;100.00;58600.66;4951319;28;20043;-74
2023/06/28 10:56:21;;;;;;;5.72;1.30;;;;;;;-145.41;100.00;58600.66;4952956;29;20114;-75
2023/06/28 10:58:53;;;;;;;4.93;1.17;;;;;;;-145.41;100.00;58600.66;4952132;29;20131;-75
2023/06/28 11:01:36;;;;;;;7.13;1.50;;;;;;;-145.41;100.00;58600.66;4952611;28;20027;-74
2023/06/28 11:04:22;;;;;;;3.35;1.20;;;;;;;-145.41;100.00;58600.66;4950961;29;20093;-74
2023/06/28 11:06:48;;;;;;;4.95;1.20;;;;;;;-145.41;100.00;58600.66;4951130;29;20053;-74
2023/06/28 11:09:19;;;;;;;4.60;1.45;;;;;;;-145.41;100.00;58600.66;4951397;29;20031;-75